| time (UTC) | temp C | wind direction | speed KPH | gust KPH | rain 1hr cm | rain 24hr cm | rain mn cm | humidity % | barometer mb |
| 20260510120246 | 6 | 293 | 6.4 | 16.1 | 0.00 | 0.36 | 0.00 | 65 | 1011.4 |
| 20260510115246 | 6 | 293 | 8.0 | 16.1 | 0.00 | 0.36 | 0.00 | 65 | 1011.3 |
| 20260510114245 | 6 | 293 | 4.8 | 12.9 | 0.00 | 0.36 | 0.00 | 67 | 1011.1 |
| 20260510113245 | 6 | 315 | 8.0 | 19.3 | 0.00 | 0.36 | 0.00 | 67 | 1011.0 |
| 20260510112516 | 6 | 315 | 6.4 | 12.9 | 0.00 | 0.36 | 0.00 | 68 | 1010.9 |
| 20260510112031 | -17 | 0.0 | 0.0 | 0.00 | 0.36 | 0.00 | |||
| 20260510111641 | -17 | 0.0 | 0.0 | 0.00 | 0.36 | 0.00 | |||
| 20260510111246 | -17 | 0.0 | 0.0 | 0.00 | 0.36 | 0.00 | |||
| 20260510110055 | -17 | 0.0 | 0.0 | 0.00 | 0.36 | 0.00 | |||
| 20260510105532 | -17 | 0.0 | 0.0 | 0.00 | 0.36 | 0.00 | |||
| 20260510105140 | -17 | 0.0 | 0.0 | 0.00 | 0.36 | 0.00 | |||
| 20260510104744 | -17 | 0.0 | 0.0 | 0.00 | 0.36 | 0.00 | |||
| 20260510103542 | -17 | 0.0 | 0.0 | 0.00 | 0.36 | 0.00 | |||
| 20260510103021 | -17 | 0.0 | 0.0 | 0.00 | 0.36 | 0.00 | |||
| 20260510102620 | -17 | 0.0 | 0.0 | 0.00 | 0.36 | 0.00 | |||
| 20260510102245 | -17 | 0.0 | 0.0 | 0.00 | 0.36 | 0.00 | |||
| 20260510101020 | -17 | 0.0 | 0.0 | 0.00 | 0.36 | 0.00 | |||
| 20260510100617 | 5 | 0.0 | 0.0 | 0.00 | 0.36 | 0.00 | 70 | 1009.3 | |
| 20260510095744 | 5 | 293 | 4.8 | 14.5 | 0.00 | 0.36 | 0.00 | 71 | 1009.1 |
| 20260510094744 | 5 | 315 | 4.8 | 14.5 | 0.00 | 0.36 | 0.00 | 70 | 1008.9 |
| 20260510093744 | 5 | 315 | 3.2 | 11.3 | 0.00 | 0.36 | 0.00 | 71 | 1008.8 |
| 20260510092805 | 5 | 293 | 3.2 | 11.3 | 0.00 | 0.36 | 0.00 | 71 | 1008.8 |
| 20260510091808 | 5 | 315 | 4.8 | 19.3 | 0.00 | 0.36 | 0.00 | 70 | 1008.7 |
| 20260510090825 | 5 | 315 | 3.2 | 8.0 | 0.00 | 0.36 | 0.00 | 70 | 1008.5 |
| 20260510085747 | 6 | 293 | 4.8 | 11.3 | 0.00 | 0.36 | 0.00 | 69 | 1008.3 |
| 20260510084745 | 6 | 293 | 4.8 | 12.9 | 0.00 | 0.36 | 0.00 | 69 | 1008.2 |
| 20260510083746 | 6 | 315 | 4.8 | 12.9 | 0.00 | 0.36 | 0.00 | 68 | 1008.0 |
| 20260510082746 | 6 | 293 | 3.2 | 9.7 | 0.00 | 0.36 | 0.00 | 68 | 1008.0 |
| 20260510081805 | 6 | 315 | 3.2 | 12.9 | 0.00 | 0.36 | 0.00 | 68 | 1008.1 |
| 20260510080747 | 6 | 293 | 4.8 | 19.3 | 0.00 | 0.36 | 0.00 | 67 | 1007.9 |
| 20260510075746 | 6 | 315 | 3.2 | 14.5 | 0.00 | 0.36 | 0.00 | 67 | 1008.0 |
| 20260510074806 | 7 | 293 | 3.2 | 9.7 | 0.00 | 0.36 | 0.00 | 66 | 1007.8 |
| 20260510073746 | 7 | 315 | 6.4 | 12.9 | 0.00 | 0.36 | 0.00 | 65 | 1007.7 |
| 20260510072747 | 7 | 293 | 4.8 | 16.1 | 0.00 | 0.36 | 0.00 | 63 | 1007.5 |
| 20260510071746 | 7 | 293 | 6.4 | 14.5 | 0.00 | 0.36 | 0.00 | 62 | 1007.7 |
| 20260510070748 | 8 | 315 | 8.0 | 20.9 | 0.00 | 0.36 | 0.00 | 60 | 1007.5 |
| 20260510065806 | 8 | 315 | 6.4 | 12.9 | 0.00 | 0.36 | 0.00 | 59 | 1007.4 |
| 20260510064746 | 8 | 315 | 8.0 | 22.5 | 0.00 | 0.36 | 0.00 | 58 | 1007.3 |
| 20260510063747 | 9 | 293 | 6.4 | 17.7 | 0.00 | 0.36 | 0.00 | 59 | 1007.3 |
| 20260510062747 | 9 | 293 | 4.8 | 12.9 | 0.00 | 0.36 | 0.00 | 59 | 1007.2 |
| 20260510061746 | 9 | 293 | 3.2 | 9.7 | 0.00 | 0.36 | 0.00 | 60 | 1007.1 |
| 20260510060747 | 9 | 315 | 4.8 | 11.3 | 0.00 | 0.36 | 0.00 | 59 | 1007.1 |
| 20260510055746 | 10 | 293 | 3.2 | 8.0 | 0.00 | 0.36 | 0.00 | 61 | 1006.8 |
| 20260510054747 | 10 | 293 | 4.8 | 12.9 | 0.00 | 0.36 | 0.00 | 61 | 1006.7 |
| 20260510053746 | 10 | 293 | 4.8 | 14.5 | 0.00 | 0.36 | 0.00 | 62 | 1006.6 |
| 20260510052747 | 10 | 315 | 4.8 | 9.7 | 0.00 | 0.36 | 0.00 | 62 | 1006.6 |
| 20260510051747 | 10 | 315 | 4.8 | 12.9 | 0.00 | 0.36 | 0.00 | 62 | 1006.6 |
| 20260510050747 | 10 | 315 | 4.8 | 8.0 | 0.00 | 0.36 | 0.00 | 62 | 1006.8 |
| 20260510045746 | 10 | 293 | 4.8 | 9.7 | 0.00 | 0.36 | 0.00 | 61 | 1006.6 |
| 20260510044806 | 10 | 293 | 3.2 | 6.4 | 0.00 | 0.36 | 0.00 | 60 | 1006.1 |
| 20260510043746 | 10 | 315 | 4.8 | 11.3 | 0.00 | 0.36 | 0.00 | 62 | 1006.2 |
| 20260510042747 | 10 | 293 | 3.2 | 8.0 | 0.00 | 0.36 | 0.00 | 62 | 1005.9 |
| 20260510041746 | 10 | 293 | 4.8 | 12.9 | 0.00 | 0.36 | 0.00 | 63 | 1005.8 |
| 20260510040806 | 10 | 315 | 1.6 | 6.4 | 0.00 | 0.36 | 0.00 | 65 | 1005.7 |
| 20260510035746 | 10 | 315 | 3.2 | 8.0 | 0.00 | 0.36 | 0.36 | 65 | 1005.6 |
| 20260510034748 | 10 | 0 | 1.6 | 8.0 | 0.00 | 0.36 | 0.36 | 66 | 1005.3 |
| 20260510033746 | 10 | 0 | 4.8 | 14.5 | 0.00 | 0.36 | 0.36 | 66 | 1005.2 |
| 20260510032746 | 10 | 0 | 3.2 | 12.9 | 0.00 | 0.36 | 0.36 | 67 | 1005.0 |
| 20260510031747 | 11 | 338 | 3.2 | 9.7 | 0.00 | 0.36 | 0.36 | 68 | 1004.8 |
| 20260510030806 | 11 | 338 | 3.2 | 9.7 | 0.00 | 0.36 | 0.36 | 69 | 1005.0 |
| 20260510025746 | 11 | 0 | 6.4 | 22.5 | 0.00 | 0.36 | 0.36 | 68 | 1004.9 |
| 20260510024747 | 11 | 315 | 6.4 | 20.9 | 0.00 | 0.36 | 0.36 | 73 | 1004.9 |
| 20260510023746 | 11 | 293 | 4.8 | 12.9 | 0.00 | 0.36 | 0.36 | 84 | 1004.9 |
| 20260510022747 | 12 | 293 | 4.8 | 12.9 | 0.00 | 0.36 | 0.36 | 88 | 1004.7 |
| 20260510021747 | 11 | 293 | 3.2 | 9.7 | 0.00 | 0.36 | 0.36 | 89 | 1004.4 |
| 20260510020806 | 11 | 293 | 3.2 | 9.7 | 0.00 | 0.36 | 0.36 | 90 | 1004.2 |
| 20260510015747 | 11 | 293 | 1.6 | 4.8 | 0.00 | 0.36 | 0.36 | 91 | 1004.0 |
| 20260510014746 | 11 | 270 | 1.6 | 4.8 | 0.00 | 0.36 | 0.36 | 92 | 1003.7 |
| 20260510013746 | 11 | 0.0 | 3.2 | 0.00 | 0.36 | 0.36 | 92 | 1003.5 | |
| 20260510012746 | 10 | 0.0 | 0.0 | 0.00 | 0.36 | 0.36 | 91 | 1003.1 | |
| 20260510011747 | 11 | 0.0 | 0.0 | 0.03 | 0.36 | 0.36 | 91 | 1003.0 | |
| 20260510010746 | 11 | 0.0 | 0.0 | 0.03 | 0.36 | 0.36 | 90 | 1002.8 | |
| 20260510005746 | 11 | 0.0 | 1.6 | 0.03 | 0.36 | 0.36 | 90 | 1002.5 | |
| 20260510004747 | 11 | 0.0 | 1.6 | 0.05 | 0.36 | 0.36 | 89 | 1002.4 | |
| 20260510003747 | 12 | 270 | 1.6 | 6.4 | 0.05 | 0.36 | 0.36 | 88 | 1002.1 |
| 20260510002807 | 12 | 270 | 3.2 | 9.7 | 0.05 | 0.36 | 0.36 | 88 | 1002.0 |
| 20260510001807 | 12 | 293 | 1.6 | 3.2 | 0.03 | 0.33 | 0.33 | 88 | 1002.1 |
| 20260510000746 | 12 | 0.0 | 3.2 | 0.03 | 0.33 | 0.33 | 88 | 1001.9 | |
| 20260509235748 | 12 | 293 | 1.6 | 4.8 | 0.03 | 0.33 | 0.33 | 87 | 1001.6 |
| 20260509234746 | 12 | 293 | 1.6 | 6.4 | 0.00 | 0.30 | 0.30 | 85 | 1001.5 |
| 20260509233807 | 12 | 293 | 3.2 | 6.4 | 0.00 | 0.30 | 0.30 | 84 | 1001.3 |
| 20260509232806 | 12 | 270 | 3.2 | 8.0 | 0.00 | 0.30 | 0.30 | 83 | 1001.0 |
| 20260509231747 | 12 | 270 | 4.8 | 14.5 | 0.00 | 0.30 | 0.30 | 82 | 1000.7 |
| 20260509230747 | 13 | 270 | 4.8 | 16.1 | 0.00 | 0.30 | 0.30 | 82 | 1000.6 |
| 20260509225806 | 13 | 270 | 3.2 | 14.5 | 0.03 | 0.30 | 0.30 | 82 | 1000.6 |
| 20260509224747 | 13 | 270 | 3.2 | 11.3 | 0.20 | 0.30 | 0.30 | 85 | 1000.6 |
| 20260509223746 | 12 | 248 | 3.2 | 12.9 | 0.28 | 0.30 | 0.30 | 89 | 1000.7 |
| 20260509222747 | 12 | 113 | 3.2 | 14.5 | 0.30 | 0.30 | 0.30 | 88 | 1000.7 |
| 20260509221746 | 12 | 270 | 6.4 | 24.1 | 0.30 | 0.30 | 0.30 | 87 | 1000.5 |
| 20260509220746 | 12 | 270 | 8.0 | 19.3 | 0.30 | 0.30 | 0.30 | 87 | 1000.7 |
| 20260509215746 | 13 | 270 | 9.7 | 24.1 | 0.28 | 0.28 | 0.28 | 85 | 1000.8 |
| 20260509214826 | 13 | 248 | 3.2 | 9.7 | 0.10 | 0.10 | 0.10 | 83 | 1000.9 |
| 20260509213745 | 15 | 270 | 3.2 | 12.9 | 0.03 | 0.03 | 0.03 | 79 | 1000.7 |
| 20260509212807 | 15 | 270 | 4.8 | 14.5 | 0.00 | 0.00 | 0.00 | 75 | 1001.0 |
| 20260509211746 | 15 | 135 | 4.8 | 19.3 | 0.00 | 0.00 | 0.00 | 74 | 1001.1 |
| 20260509210746 | 15 | 225 | 6.4 | 17.7 | 0.00 | 0.00 | 0.00 | 73 | 1000.9 |
| 20260509205746 | 15 | 158 | 4.8 | 14.5 | 0.00 | 0.00 | 0.00 | 74 | 1000.5 |
| 20260509204745 | 15 | 135 | 4.8 | 14.5 | 0.00 | 0.00 | 0.00 | 73 | 1000.5 |
| 20260509203806 | 14 | 135 | 4.8 | 12.9 | 0.00 | 0.00 | 0.00 | 73 | 1000.7 |
| 20260509202745 | 14 | 135 | 4.8 | 14.5 | 0.00 | 0.00 | 0.00 | 74 | 1001.1 |
| 20260509201745 | 14 | 135 | 6.4 | 17.7 | 0.00 | 0.00 | 0.00 | 74 | 1000.8 |
| 20260509200745 | 13 | 135 | 4.8 | 11.3 | 0.00 | 0.00 | 0.00 | 74 | 1001.3 |
| 20260509195747 | 13 | 135 | 4.8 | 11.3 | 0.00 | 0.00 | 0.00 | 74 | 1001.3 |
| 20260509194746 | 13 | 135 | 6.4 | 14.5 | 0.00 | 0.00 | 0.00 | 73 | 1001.3 |
| 20260509193745 | 14 | 135 | 3.2 | 12.9 | 0.00 | 0.00 | 0.00 | 73 | 1001.5 |
| 20260509192746 | 15 | 158 | 6.4 | 14.5 | 0.00 | 0.00 | 0.00 | 71 | 1001.7 |
| 20260509191745 | 15 | 158 | 4.8 | 14.5 | 0.00 | 0.00 | 0.00 | 70 | 1001.8 |
| 20260509190747 | 16 | 135 | 6.4 | 16.1 | 0.00 | 0.00 | 0.00 | 68 | 1002.0 |
| 20260509185745 | 16 | 135 | 6.4 | 24.1 | 0.00 | 0.00 | 0.00 | 68 | 1002.0 |
| 20260509184745 | 17 | 135 | 3.2 | 19.3 | 0.00 | 0.00 | 0.00 | 68 | 1001.9 |
| 20260509183745 | 16 | 135 | 6.4 | 16.1 | 0.00 | 0.00 | 0.00 | 69 | 1002.1 |
| 20260509182745 | 16 | 158 | 8.0 | 29.0 | 0.00 | 0.00 | 0.00 | 69 | 1002.0 |
| 20260509181746 | 17 | 135 | 4.8 | 16.1 | 0.00 | 0.00 | 0.00 | 66 | 1002.1 |
| 20260509180746 | 17 | 135 | 6.4 | 29.0 | 0.00 | 0.00 | 0.00 | 67 | 1002.0 |
| 20260509175746 | 17 | 135 | 9.7 | 20.9 | 0.00 | 0.00 | 0.00 | 66 | 1002.2 |
| 20260509174746 | 17 | 158 | 9.7 | 25.7 | 0.00 | 0.00 | 0.00 | 67 | 1002.4 |
| 20260509173746 | 17 | 135 | 4.8 | 14.5 | 0.00 | 0.00 | 0.00 | 66 | 1002.7 |
| 20260509172745 | 17 | 135 | 4.8 | 19.3 | 0.00 | 0.00 | 0.00 | 68 | 1002.8 |
| 20260509171746 | 17 | 158 | 3.2 | 8.0 | 0.00 | 0.00 | 0.00 | 68 | 1003.1 |
| 20260509170746 | 17 | 135 | 3.2 | 9.7 | 0.00 | 0.00 | 0.00 | 70 | 1003.2 |
| 20260509165746 | 16 | 135 | 4.8 | 16.1 | 0.00 | 0.00 | 0.00 | 70 | 1003.3 |
| 20260509164805 | 16 | 135 | 4.8 | 11.3 | 0.00 | 0.00 | 0.00 | 71 | 1003.3 |
| 20260509163746 | 16 | 135 | 4.8 | 14.5 | 0.00 | 0.00 | 0.00 | 72 | 1003.3 |
| 20260509162806 | 16 | 135 | 6.4 | 17.7 | 0.00 | 0.00 | 0.00 | 73 | 1003.5 |
| 20260509161746 | 15 | 270 | 3.2 | 9.7 | 0.00 | 0.00 | 0.00 | 75 | 1003.7 |
| 20260509160745 | 14 | 270 | 4.8 | 11.3 | 0.00 | 0.00 | 0.00 | 76 | 1003.9 |
| 20260509155746 | 14 | 135 | 3.2 | 11.3 | 0.00 | 0.00 | 0.00 | 79 | 1004.0 |
| 20260509154746 | 13 | 135 | 3.2 | 11.3 | 0.00 | 0.00 | 0.00 | 78 | 1004.2 |
| 20260509153746 | 13 | 135 | 3.2 | 11.3 | 0.00 | 0.00 | 0.00 | 80 | 1004.3 |
| 20260509152745 | 12 | 135 | 1.6 | 8.0 | 0.00 | 0.00 | 0.00 | 83 | 1004.4 |
| 20260509151806 | 12 | 113 | 3.2 | 8.0 | 0.00 | 0.00 | 0.00 | 84 | 1004.5 |
| 20260509150745 | 11 | 158 | 3.2 | 9.7 | 0.00 | 0.00 | 0.00 | 83 | 1004.5 |
| 20260509145746 | 11 | 135 | 3.2 | 9.7 | 0.00 | 0.00 | 0.00 | 82 | 1004.4 |
| 20260509144746 | 12 | 135 | 3.2 | 11.3 | 0.00 | 0.00 | 0.00 | 82 | 1004.6 |
| 20260509143746 | 12 | 135 | 4.8 | 14.5 | 0.00 | 0.00 | 0.00 | 81 | 1004.7 |
| 20260509142806 | 12 | 135 | 1.6 | 4.8 | 0.00 | 0.00 | 0.00 | 81 | 1004.9 |
| 20260509141826 | 12 | 135 | 3.2 | 8.0 | 0.00 | 0.00 | 0.00 | 80 | 1004.8 |
| 20260509140806 | 12 | 158 | 3.2 | 8.0 | 0.00 | 0.00 | 0.00 | 81 | 1004.7 |
| 20260509135745 | 12 | 158 | 3.2 | 8.0 | 0.00 | 0.00 | 0.00 | 79 | 1004.9 |
| 20260509134744 | 12 | 135 | 4.8 | 9.7 | 0.00 | 0.00 | 0.00 | 78 | 1004.9 |
| 20260509133747 | 11 | 135 | 3.2 | 8.0 | 0.00 | 0.00 | 0.00 | 78 | 1005.0 |
| 20260509132746 | 11 | 135 | 3.2 | 9.7 | 0.00 | 0.00 | 0.00 | 76 | 1005.2 |
| 20260509131746 | 11 | 135 | 3.2 | 8.0 | 0.00 | 0.00 | 0.00 | 75 | 1005.2 |
| 20260509130745 | 11 | 135 | 4.8 | 9.7 | 0.00 | 0.00 | 0.00 | 75 | 1005.2 |
| 20260509125745 | 11 | 135 | 1.6 | 9.7 | 0.00 | 0.00 | 0.00 | 75 | 1005.3 |
| 20260509124805 | 10 | 135 | 3.2 | 9.7 | 0.00 | 0.00 | 0.00 | 74 | 1005.4 |
| 20260509123745 | 10 | 158 | 1.6 | 11.3 | 0.00 | 0.00 | 0.00 | 72 | 1005.3 |
| 20260509122745 | 8 | 158 | 1.6 | 6.4 | 0.00 | 0.00 | 0.00 | 73 | 1005.4 |
| 20260509121746 | 8 | 135 | 1.6 | 6.4 | 0.00 | 0.00 | 0.00 | 73 | 1005.3 |
| 20260509120825 | 7 | 0.0 | 3.2 | 0.00 | 0.00 | 0.00 | 75 | 1005.3 |